sensor_id;sensor_type;location;lat;lon;timestamp;P1;durP1;ratioP1;P2;durP2;ratioP2
21894;SDS011;11112;51.270;7.224;2024-01-11T00:03:11;55.60;;;26.02;;
21894;SDS011;11112;51.270;7.224;2024-01-11T00:06:04;55.17;;;26.42;;
21894;SDS011;11112;51.270;7.224;2024-01-11T00:08:55;50.92;;;25.85;;
21894;SDS011;11112;51.270;7.224;2024-01-11T00:11:50;51.85;;;25.88;;
21894;SDS011;11112;51.270;7.224;2024-01-11T00:14:35;51.80;;;25.88;;
21894;SDS011;11112;51.270;7.224;2024-01-11T00:17:36;47.50;;;24.52;;
21894;SDS011;11112;51.270;7.224;2024-01-11T00:20:39;50.90;;;24.58;;
21894;SDS011;11112;51.270;7.224;2024-01-11T00:23:34;56.63;;;25.13;;
21894;SDS011;11112;51.270;7.224;2024-01-11T00:26:26;50.70;;;25.13;;
21894;SDS011;11112;51.270;7.224;2024-01-11T00:29:24;52.08;;;25.63;;
21894;SDS011;11112;51.270;7.224;2024-01-11T00:32:16;49.60;;;25.20;;
21894;SDS011;11112;51.270;7.224;2024-01-11T00:35:08;50.03;;;24.50;;
21894;SDS011;11112;51.270;7.224;2024-01-11T00:38:04;50.75;;;25.23;;
21894;SDS011;11112;51.270;7.224;2024-01-11T00:41:02;50.38;;;25.02;;
21894;SDS011;11112;51.270;7.224;2024-01-11T00:43:55;48.55;;;24.30;;
21894;SDS011;11112;51.270;7.224;2024-01-11T00:46:46;51.85;;;24.40;;
21894;SDS011;11112;51.270;7.224;2024-01-11T00:49:41;49.88;;;24.27;;
21894;SDS011;11112;51.270;7.224;2024-01-11T00:52:36;48.55;;;24.65;;
21894;SDS011;11112;51.270;7.224;2024-01-11T00:55:49;50.47;;;25.08;;
21894;SDS011;11112;51.270;7.224;2024-01-11T00:58:41;56.35;;;25.85;;
21894;SDS011;11112;51.270;7.224;2024-01-11T01:01:32;51.88;;;25.88;;
21894;SDS011;11112;51.270;7.224;2024-01-11T01:04:39;49.03;;;24.83;;
21894;SDS011;11112;51.270;7.224;2024-01-11T01:07:29;56.22;;;26.17;;
21894;SDS011;11112;51.270;7.224;2024-01-11T01:10:20;49.72;;;24.58;;
21894;SDS011;11112;51.270;7.224;2024-01-11T01:13:17;51.45;;;25.63;;
21894;SDS011;11112;51.270;7.224;2024-01-11T01:16:18;53.60;;;24.85;;
21894;SDS011;11112;51.270;7.224;2024-01-11T01:19:15;55.60;;;24.83;;
21894;SDS011;11112;51.270;7.224;2024-01-11T01:22:05;50.25;;;24.38;;
21894;SDS011;11112;51.270;7.224;2024-01-11T01:25:01;49.08;;;24.60;;
21894;SDS011;11112;51.270;7.224;2024-01-11T01:28:03;47.90;;;24.13;;
21894;SDS011;11112;51.270;7.224;2024-01-11T01:31:13;50.90;;;25.27;;
21894;SDS011;11112;51.270;7.224;2024-01-11T01:34:08;52.17;;;25.38;;
21894;SDS011;11112;51.270;7.224;2024-01-11T01:37:00;59.15;;;26.85;;
21894;SDS011;11112;51.270;7.224;2024-01-11T01:39:53;51.15;;;25.05;;
21894;SDS011;11112;51.270;7.224;2024-01-11T01:42:44;52.38;;;25.98;;
21894;SDS011;11112;51.270;7.224;2024-01-11T01:45:50;52.78;;;25.90;;
21894;SDS011;11112;51.270;7.224;2024-01-11T01:48:45;51.22;;;24.50;;
21894;SDS011;11112;51.270;7.224;2024-01-11T01:51:37;56.78;;;26.15;;
21894;SDS011;11112;51.270;7.224;2024-01-11T01:54:28;50.60;;;24.63;;
21894;SDS011;11112;51.270;7.224;2024-01-11T01:57:21;49.35;;;25.45;;
21894;SDS011;11112;51.270;7.224;2024-01-11T02:00:14;55.85;;;25.05;;
21894;SDS011;11112;51.270;7.224;2024-01-11T02:03:07;53.50;;;25.27;;
21894;SDS011;11112;51.270;7.224;2024-01-11T02:06:04;52.95;;;25.20;;
21894;SDS011;11112;51.270;7.224;2024-01-11T02:08:55;50.72;;;25.17;;
21894;SDS011;11112;51.270;7.224;2024-01-11T02:11:54;52.50;;;24.42;;
21894;SDS011;11112;51.270;7.224;2024-01-11T02:14:47;51.42;;;24.95;;
21894;SDS011;11112;51.270;7.224;2024-01-11T02:17:46;51.00;;;25.50;;
21894;SDS011;11112;51.270;7.224;2024-01-11T02:20:44;49.95;;;24.35;;
21894;SDS011;11112;51.270;7.224;2024-01-11T02:23:39;47.60;;;24.40;;
21894;SDS011;11112;51.270;7.224;2024-01-11T02:29:51;54.45;;;24.73;;
21894;SDS011;11112;51.270;7.224;2024-01-11T02:32:45;52.33;;;25.13;;
21894;SDS011;11112;51.270;7.224;2024-01-11T02:35:38;51.47;;;25.08;;
21894;SDS011;11112;51.270;7.224;2024-01-11T02:38:30;53.78;;;25.88;;
21894;SDS011;11112;51.270;7.224;2024-01-11T02:41:29;56.25;;;26.33;;
21894;SDS011;11112;51.270;7.224;2024-01-11T02:44:23;48.47;;;25.35;;
21894;SDS011;11112;51.270;7.224;2024-01-11T02:47:14;57.00;;;25.40;;
21894;SDS011;11112;51.270;7.224;2024-01-11T02:50:15;51.95;;;25.17;;
21894;SDS011;11112;51.270;7.224;2024-01-11T02:53:16;53.95;;;25.40;;
21894;SDS011;11112;51.270;7.224;2024-01-11T02:56:08;54.15;;;25.63;;
21894;SDS011;11112;51.270;7.224;2024-01-11T02:59:05;54.08;;;25.60;;
21894;SDS011;11112;51.270;7.224;2024-01-11T03:01:38;49.22;;;24.77;;
21894;SDS011;11112;51.270;7.224;2024-01-11T03:04:33;51.03;;;24.65;;
21894;SDS011;11112;51.270;7.224;2024-01-11T03:07:25;49.95;;;24.77;;
21894;SDS011;11112;51.270;7.224;2024-01-11T03:10:17;52.70;;;24.90;;
21894;SDS011;11112;51.270;7.224;2024-01-11T03:13:09;49.83;;;24.52;;
21894;SDS011;11112;51.270;7.224;2024-01-11T03:16:07;50.88;;;23.73;;
21894;SDS011;11112;51.270;7.224;2024-01-11T03:19:00;48.63;;;24.23;;
21894;SDS011;11112;51.270;7.224;2024-01-11T03:21:52;59.13;;;26.75;;
21894;SDS011;11112;51.270;7.224;2024-01-11T03:24:45;60.35;;;26.70;;
21894;SDS011;11112;51.270;7.224;2024-01-11T03:27:40;55.60;;;27.02;;
21894;SDS011;11112;51.270;7.224;2024-01-11T03:30:34;53.50;;;25.55;;
21894;SDS011;11112;51.270;7.224;2024-01-11T03:33:30;58.15;;;25.35;;
21894;SDS011;11112;51.270;7.224;2024-01-11T03:36:24;55.30;;;24.42;;
21894;SDS011;11112;51.270;7.224;2024-01-11T03:39:16;57.00;;;25.67;;
21894;SDS011;11112;51.270;7.224;2024-01-11T03:42:09;49.92;;;24.10;;
21894;SDS011;11112;51.270;7.224;2024-01-11T03:44:40;55.58;;;24.48;;
21894;SDS011;11112;51.270;7.224;2024-01-11T03:47:34;54.63;;;25.45;;
21894;SDS011;11112;51.270;7.224;2024-01-11T03:50:30;53.88;;;24.70;;
21894;SDS011;11112;51.270;7.224;2024-01-11T03:53:23;53.13;;;24.80;;
21894;SDS011;11112;51.270;7.224;2024-01-11T03:56:16;50.00;;;23.40;;
21894;SDS011;11112;51.270;7.224;2024-01-11T03:58:51;55.58;;;25.33;;
21894;SDS011;11112;51.270;7.224;2024-01-11T04:01:49;49.65;;;24.70;;
21894;SDS011;11112;51.270;7.224;2024-01-11T04:04:42;47.22;;;23.70;;
21894;SDS011;11112;51.270;7.224;2024-01-11T04:07:40;49.17;;;23.95;;
21894;SDS011;11112;51.270;7.224;2024-01-11T04:10:32;52.58;;;24.08;;
21894;SDS011;11112;51.270;7.224;2024-01-11T04:13:25;52.25;;;24.15;;
21894;SDS011;11112;51.270;7.224;2024-01-11T04:16:16;55.08;;;23.90;;
21894;SDS011;11112;51.270;7.224;2024-01-11T04:19:09;45.38;;;23.17;;
21894;SDS011;11112;51.270;7.224;2024-01-11T04:21:55;50.05;;;24.42;;
21894;SDS011;11112;51.270;7.224;2024-01-11T04:24:52;45.42;;;23.25;;
21894;SDS011;11112;51.270;7.224;2024-01-11T04:27:45;50.95;;;23.38;;
21894;SDS011;11112;51.270;7.224;2024-01-11T04:30:35;46.53;;;23.13;;
21894;SDS011;11112;51.270;7.224;2024-01-11T04:33:30;46.30;;;23.45;;
21894;SDS011;11112;51.270;7.224;2024-01-11T04:36:26;47.83;;;23.17;;
21894;SDS011;11112;51.270;7.224;2024-01-11T04:38:58;48.03;;;23.10;;
21894;SDS011;11112;51.270;7.224;2024-01-11T04:41:55;46.53;;;23.98;;
21894;SDS011;11112;51.270;7.224;2024-01-11T04:44:56;47.97;;;23.80;;
21894;SDS011;11112;51.270;7.224;2024-01-11T04:47:45;48.35;;;22.85;;
21894;SDS011;11112;51.270;7.224;2024-01-11T04:50:38;49.45;;;24.13;;
21894;SDS011;11112;51.270;7.224;2024-01-11T04:53:36;54.17;;;25.30;;
21894;SDS011;11112;51.270;7.224;2024-01-11T04:56:26;49.67;;;25.13;;
21894;SDS011;11112;51.270;7.224;2024-01-11T04:59:23;55.38;;;25.80;;
21894;SDS011;11112;51.270;7.224;2024-01-11T05:02:14;50.30;;;25.40;;
21894;SDS011;11112;51.270;7.224;2024-01-11T05:04:53;51.83;;;25.38;;
21894;SDS011;11112;51.270;7.224;2024-01-11T05:07:53;53.90;;;26.65;;
21894;SDS011;11112;51.270;7.224;2024-01-11T05:10:45;50.20;;;24.08;;
21894;SDS011;11112;51.270;7.224;2024-01-11T05:13:37;52.95;;;25.70;;
21894;SDS011;11112;51.270;7.224;2024-01-11T05:16:34;51.38;;;25.05;;
21894;SDS011;11112;51.270;7.224;2024-01-11T05:19:26;51.28;;;25.13;;
21894;SDS011;11112;51.270;7.224;2024-01-11T05:22:18;48.45;;;25.08;;
21894;SDS011;11112;51.270;7.224;2024-01-11T05:25:10;49.70;;;24.20;;
21894;SDS011;11112;51.270;7.224;2024-01-11T05:28:04;50.55;;;25.70;;
21894;SDS011;11112;51.270;7.224;2024-01-11T05:30:52;46.92;;;23.75;;
21894;SDS011;11112;51.270;7.224;2024-01-11T05:33:50;48.65;;;24.92;;
21894;SDS011;11112;51.270;7.224;2024-01-11T05:36:34;50.50;;;24.00;;
21894;SDS011;11112;51.270;7.224;2024-01-11T05:39:10;48.70;;;24.50;;
21894;SDS011;11112;51.270;7.224;2024-01-11T05:42:03;54.90;;;25.88;;
21894;SDS011;11112;51.270;7.224;2024-01-11T05:44:57;48.10;;;24.35;;
21894;SDS011;11112;51.270;7.224;2024-01-11T05:47:59;48.70;;;25.13;;
21894;SDS011;11112;51.270;7.224;2024-01-11T05:50:42;50.10;;;23.75;;
21894;SDS011;11112;51.270;7.224;2024-01-11T05:53:35;53.15;;;24.85;;
21894;SDS011;11112;51.270;7.224;2024-01-11T05:56:29;53.63;;;25.20;;
21894;SDS011;11112;51.270;7.224;2024-01-11T05:59:15;53.33;;;24.40;;
21894;SDS011;11112;51.270;7.224;2024-01-11T06:02:08;50.95;;;25.17;;
21894;SDS011;11112;51.270;7.224;2024-01-11T06:05:10;53.78;;;24.90;;
21894;SDS011;11112;51.270;7.224;2024-01-11T06:08:07;55.15;;;27.15;;
21894;SDS011;11112;51.270;7.224;2024-01-11T06:11:00;53.92;;;27.02;;
21894;SDS011;11112;51.270;7.224;2024-01-11T06:13:52;56.83;;;26.85;;
21894;SDS011;11112;51.270;7.224;2024-01-11T06:16:44;55.90;;;27.17;;
21894;SDS011;11112;51.270;7.224;2024-01-11T06:19:37;55.72;;;26.92;;
21894;SDS011;11112;51.270;7.224;2024-01-11T06:22:29;53.70;;;26.75;;
21894;SDS011;11112;51.270;7.224;2024-01-11T06:25:26;54.53;;;27.40;;
21894;SDS011;11112;51.270;7.224;2024-01-11T06:28:18;53.88;;;27.52;;
21894;SDS011;11112;51.270;7.224;2024-01-11T06:30:54;54.03;;;26.35;;
21894;SDS011;11112;51.270;7.224;2024-01-11T06:33:26;48.10;;;26.02;;
21894;SDS011;11112;51.270;7.224;2024-01-11T06:36:19;53.65;;;27.50;;
21894;SDS011;11112;51.270;7.224;2024-01-11T06:39:11;55.63;;;27.40;;
21894;SDS011;11112;51.270;7.224;2024-01-11T06:42:09;55.70;;;26.45;;
21894;SDS011;11112;51.270;7.224;2024-01-11T06:45:00;57.30;;;28.92;;
21894;SDS011;11112;51.270;7.224;2024-01-11T06:47:54;59.23;;;28.67;;
21894;SDS011;11112;51.270;7.224;2024-01-11T06:50:48;50.50;;;26.35;;
21894;SDS011;11112;51.270;7.224;2024-01-11T06:53:40;52.60;;;25.75;;
21894;SDS011;11112;51.270;7.224;2024-01-11T06:56:34;59.72;;;26.52;;
21894;SDS011;11112;51.270;7.224;2024-01-11T06:59:30;54.28;;;27.20;;
21894;SDS011;11112;51.270;7.224;2024-01-11T07:02:23;54.40;;;27.75;;
21894;SDS011;11112;51.270;7.224;2024-01-11T07:05:15;55.25;;;26.80;;
21894;SDS011;11112;51.270;7.224;2024-01-11T07:08:08;50.72;;;26.67;;
21894;SDS011;11112;51.270;7.224;2024-01-11T07:10:59;54.25;;;26.95;;
21894;SDS011;11112;51.270;7.224;2024-01-11T07:13:50;56.28;;;27.13;;
21894;SDS011;11112;51.270;7.224;2024-01-11T07:16:39;50.88;;;25.83;;
21894;SDS011;11112;51.270;7.224;2024-01-11T07:19:30;61.83;;;28.02;;
21894;SDS011;11112;51.270;7.224;2024-01-11T07:22:23;55.88;;;27.98;;
21894;SDS011;11112;51.270;7.224;2024-01-11T07:25:16;55.22;;;28.15;;
21894;SDS011;11112;51.270;7.224;2024-01-11T07:28:08;59.05;;;29.45;;
21894;SDS011;11112;51.270;7.224;2024-01-11T07:31:00;57.00;;;28.40;;
21894;SDS011;11112;51.270;7.224;2024-01-11T07:33:51;54.92;;;28.83;;
21894;SDS011;11112;51.270;7.224;2024-01-11T07:36:44;57.92;;;28.30;;
21894;SDS011;11112;51.270;7.224;2024-01-11T07:39:37;52.35;;;27.80;;
21894;SDS011;11112;51.270;7.224;2024-01-11T07:42:25;57.63;;;30.02;;
21894;SDS011;11112;51.270;7.224;2024-01-11T07:44:57;61.47;;;29.55;;
21894;SDS011;11112;51.270;7.224;2024-01-11T07:47:48;56.28;;;28.17;;
21894;SDS011;11112;51.270;7.224;2024-01-11T07:50:37;53.72;;;28.08;;
21894;SDS011;11112;51.270;7.224;2024-01-11T07:53:23;57.63;;;28.33;;
21894;SDS011;11112;51.270;7.224;2024-01-11T07:56:06;58.90;;;28.70;;
21894;SDS011;11112;51.270;7.224;2024-01-11T07:59:05;62.13;;;30.70;;
21894;SDS011;11112;51.270;7.224;2024-01-11T08:01:58;62.38;;;28.60;;
21894;SDS011;11112;51.270;7.224;2024-01-11T08:04:58;61.58;;;31.25;;
21894;SDS011;11112;51.270;7.224;2024-01-11T08:08:02;66.05;;;30.95;;
21894;SDS011;11112;51.270;7.224;2024-01-11T08:10:53;58.70;;;29.73;;
21894;SDS011;11112;51.270;7.224;2024-01-11T08:13:59;63.35;;;30.98;;
21894;SDS011;11112;51.270;7.224;2024-01-11T08:16:57;56.10;;;28.67;;
21894;SDS011;11112;51.270;7.224;2024-01-11T08:19:49;65.70;;;31.23;;
21894;SDS011;11112;51.270;7.224;2024-01-11T08:22:42;60.33;;;29.88;;
21894;SDS011;11112;51.270;7.224;2024-01-11T08:25:39;56.65;;;28.20;;
21894;SDS011;11112;51.270;7.224;2024-01-11T08:28:30;58.67;;;29.98;;
21894;SDS011;11112;51.270;7.224;2024-01-11T08:31:22;56.03;;;28.77;;
21894;SDS011;11112;51.270;7.224;2024-01-11T08:34:15;57.92;;;28.73;;
21894;SDS011;11112;51.270;7.224;2024-01-11T08:37:08;60.55;;;29.23;;
21894;SDS011;11112;51.270;7.224;2024-01-11T08:40:06;60.55;;;29.63;;
21894;SDS011;11112;51.270;7.224;2024-01-11T08:42:59;58.63;;;28.60;;
21894;SDS011;11112;51.270;7.224;2024-01-11T08:45:50;53.33;;;27.30;;
21894;SDS011;11112;51.270;7.224;2024-01-11T08:48:43;55.10;;;27.33;;
21894;SDS011;11112;51.270;7.224;2024-01-11T08:51:35;54.53;;;27.15;;
21894;SDS011;11112;51.270;7.224;2024-01-11T08:54:27;56.72;;;27.13;;
21894;SDS011;11112;51.270;7.224;2024-01-11T08:57:25;54.83;;;26.77;;
21894;SDS011;11112;51.270;7.224;2024-01-11T09:00:17;52.67;;;26.27;;
21894;SDS011;11112;51.270;7.224;2024-01-11T09:03:11;52.53;;;25.75;;
21894;SDS011;11112;51.270;7.224;2024-01-11T09:06:02;49.60;;;24.95;;
21894;SDS011;11112;51.270;7.224;2024-01-11T09:08:55;50.88;;;26.42;;
21894;SDS011;11112;51.270;7.224;2024-01-11T09:11:50;51.90;;;25.92;;
21894;SDS011;11112;51.270;7.224;2024-01-11T09:14:46;55.47;;;27.08;;
21894;SDS011;11112;51.270;7.224;2024-01-11T09:17:38;54.33;;;27.70;;
21894;SDS011;11112;51.270;7.224;2024-01-11T09:20:33;51.63;;;26.98;;
21894;SDS011;11112;51.270;7.224;2024-01-11T09:23:29;55.08;;;26.75;;
21894;SDS011;11112;51.270;7.224;2024-01-11T09:26:22;58.00;;;28.52;;
21894;SDS011;11112;51.270;7.224;2024-01-11T09:29:14;54.28;;;27.67;;
21894;SDS011;11112;51.270;7.224;2024-01-11T09:32:11;55.00;;;27.63;;
21894;SDS011;11112;51.270;7.224;2024-01-11T09:35:04;51.58;;;27.17;;
21894;SDS011;11112;51.270;7.224;2024-01-11T09:38:02;51.65;;;26.83;;
21894;SDS011;11112;51.270;7.224;2024-01-11T09:41:03;54.63;;;27.25;;
21894;SDS011;11112;51.270;7.224;2024-01-11T09:44:15;54.40;;;26.60;;
21894;SDS011;11112;51.270;7.224;2024-01-11T09:47:29;55.33;;;27.05;;
21894;SDS011;11112;51.270;7.224;2024-01-11T09:53:10;52.67;;;26.80;;
21894;SDS011;11112;51.270;7.224;2024-01-11T09:58:54;53.10;;;26.17;;
21894;SDS011;11112;51.270;7.224;2024-01-11T10:01:53;51.72;;;26.83;;
21894;SDS011;11112;51.270;7.224;2024-01-11T10:04:56;52.70;;;26.02;;
21894;SDS011;11112;51.270;7.224;2024-01-11T10:07:46;47.10;;;25.13;;
21894;SDS011;11112;51.270;7.224;2024-01-11T10:10:36;48.60;;;25.30;;
21894;SDS011;11112;51.270;7.224;2024-01-11T10:13:35;49.58;;;24.98;;
21894;SDS011;11112;51.270;7.224;2024-01-11T10:16:24;48.40;;;25.38;;
21894;SDS011;11112;51.270;7.224;2024-01-11T10:19:23;47.30;;;24.25;;
21894;SDS011;11112;51.270;7.224;2024-01-11T10:22:27;46.35;;;23.80;;
21894;SDS011;11112;51.270;7.224;2024-01-11T10:25:08;49.30;;;24.65;;
21894;SDS011;11112;51.270;7.224;2024-01-11T10:27:55;50.97;;;23.80;;
21894;SDS011;11112;51.270;7.224;2024-01-11T10:30:52;48.83;;;25.83;;
21894;SDS011;11112;51.270;7.224;2024-01-11T10:33:45;44.00;;;23.38;;
21894;SDS011;11112;51.270;7.224;2024-01-11T10:36:39;43.72;;;22.38;;
21894;SDS011;11112;51.270;7.224;2024-01-11T10:39:35;42.15;;;22.23;;
21894;SDS011;11112;51.270;7.224;2024-01-11T10:42:27;48.15;;;22.73;;
21894;SDS011;11112;51.270;7.224;2024-01-11T10:45:16;44.25;;;23.25;;
21894;SDS011;11112;51.270;7.224;2024-01-11T10:48:18;42.67;;;22.67;;
21894;SDS011;11112;51.270;7.224;2024-01-11T10:51:16;44.97;;;23.20;;
21894;SDS011;11112;51.270;7.224;2024-01-11T10:54:10;42.17;;;21.27;;
21894;SDS011;11112;51.270;7.224;2024-01-11T10:57:12;45.75;;;22.40;;
21894;SDS011;11112;51.270;7.224;2024-01-11T11:00:08;45.10;;;23.55;;
21894;SDS011;11112;51.270;7.224;2024-01-11T11:02:59;40.15;;;21.23;;
21894;SDS011;11112;51.270;7.224;2024-01-11T11:06:00;44.47;;;23.48;;
21894;SDS011;11112;51.270;7.224;2024-01-11T11:08:52;48.58;;;23.95;;
21894;SDS011;11112;51.270;7.224;2024-01-11T11:11:49;43.65;;;22.48;;
21894;SDS011;11112;51.270;7.224;2024-01-11T11:14:48;52.05;;;25.38;;
21894;SDS011;11112;51.270;7.224;2024-01-11T11:17:42;49.80;;;24.50;;
21894;SDS011;11112;51.270;7.224;2024-01-11T11:20:37;47.58;;;23.98;;
21894;SDS011;11112;51.270;7.224;2024-01-11T11:23:30;46.05;;;24.00;;
21894;SDS011;11112;51.270;7.224;2024-01-11T11:26:13;45.90;;;23.17;;
21894;SDS011;11112;51.270;7.224;2024-01-11T11:29:12;46.47;;;23.50;;
21894;SDS011;11112;51.270;7.224;2024-01-11T11:32:08;44.55;;;23.75;;
21894;SDS011;11112;51.270;7.224;2024-01-11T11:35:21;44.92;;;22.75;;
21894;SDS011;11112;51.270;7.224;2024-01-11T11:38:26;42.88;;;22.23;;
21894;SDS011;11112;51.270;7.224;2024-01-11T11:41:17;40.67;;;21.50;;
21894;SDS011;11112;51.270;7.224;2024-01-11T11:44:05;44.03;;;22.08;;
21894;SDS011;11112;51.270;7.224;2024-01-11T11:47:21;43.03;;;21.85;;
21894;SDS011;11112;51.270;7.224;2024-01-11T11:50:11;46.38;;;21.70;;
21894;SDS011;11112;51.270;7.224;2024-01-11T11:53:08;42.90;;;22.25;;
21894;SDS011;11112;51.270;7.224;2024-01-11T11:56:07;42.38;;;21.42;;
21894;SDS011;11112;51.270;7.224;2024-01-11T11:58:59;48.42;;;23.25;;
21894;SDS011;11112;51.270;7.224;2024-01-11T12:01:57;42.72;;;22.35;;
21894;SDS011;11112;51.270;7.224;2024-01-11T12:05:00;43.50;;;21.45;;
21894;SDS011;11112;51.270;7.224;2024-01-11T12:07:53;42.05;;;20.52;;
21894;SDS011;11112;51.270;7.224;2024-01-11T12:10:44;38.13;;;20.00;;
21894;SDS011;11112;51.270;7.224;2024-01-11T12:13:36;38.05;;;19.73;;
21894;SDS011;11112;51.270;7.224;2024-01-11T12:16:28;39.08;;;20.15;;
21894;SDS011;11112;51.270;7.224;2024-01-11T12:19:25;35.50;;;19.48;;
21894;SDS011;11112;51.270;7.224;2024-01-11T12:22:25;39.08;;;20.23;;
21894;SDS011;11112;51.270;7.224;2024-01-11T12:25:18;39.35;;;19.77;;
21894;SDS011;11112;51.270;7.224;2024-01-11T12:28:09;38.00;;;19.60;;
21894;SDS011;11112;51.270;7.224;2024-01-11T12:31:00;40.60;;;20.67;;
21894;SDS011;11112;51.270;7.224;2024-01-11T12:33:52;38.50;;;20.52;;
21894;SDS011;11112;51.270;7.224;2024-01-11T12:36:49;39.90;;;20.52;;
21894;SDS011;11112;51.270;7.224;2024-01-11T12:39:41;41.50;;;20.05;;
21894;SDS011;11112;51.270;7.224;2024-01-11T12:42:32;33.78;;;18.67;;
21894;SDS011;11112;51.270;7.224;2024-01-11T12:45:21;36.08;;;16.45;;
21894;SDS011;11112;51.270;7.224;2024-01-11T12:48:11;34.83;;;16.02;;
21894;SDS011;11112;51.270;7.224;2024-01-11T12:51:00;33.03;;;16.60;;
21894;SDS011;11112;51.270;7.224;2024-01-11T12:53:58;37.28;;;17.75;;
21894;SDS011;11112;51.270;7.224;2024-01-11T12:56:46;34.95;;;19.05;;
21894;SDS011;11112;51.270;7.224;2024-01-11T12:59:17;40.80;;;18.77;;
21894;SDS011;11112;51.270;7.224;2024-01-11T13:02:18;38.08;;;17.63;;
21894;SDS011;11112;51.270;7.224;2024-01-11T13:05:19;35.70;;;17.33;;
21894;SDS011;11112;51.270;7.224;2024-01-11T13:08:12;33.28;;;16.88;;
21894;SDS011;11112;51.270;7.224;2024-01-11T13:11:11;35.05;;;17.95;;
21894;SDS011;11112;51.270;7.224;2024-01-11T13:14:02;37.53;;;19.60;;
21894;SDS011;11112;51.270;7.224;2024-01-11T13:19:22;40.78;;;19.88;;
21894;SDS011;11112;51.270;7.224;2024-01-11T13:22:13;42.38;;;21.77;;
21894;SDS011;11112;51.270;7.224;2024-01-11T13:25:09;39.45;;;21.33;;
21894;SDS011;11112;51.270;7.224;2024-01-11T13:28:08;41.63;;;21.13;;
21894;SDS011;11112;51.270;7.224;2024-01-11T13:31:00;42.45;;;22.25;;
21894;SDS011;11112;51.270;7.224;2024-01-11T13:33:55;47.47;;;23.10;;
21894;SDS011;11112;51.270;7.224;2024-01-11T13:36:38;41.90;;;22.73;;
21894;SDS011;11112;51.270;7.224;2024-01-11T13:39:26;46.17;;;23.27;;
21894;SDS011;11112;51.270;7.224;2024-01-11T13:42:18;46.58;;;22.77;;
21894;SDS011;11112;51.270;7.224;2024-01-11T13:45:17;39.10;;;22.50;;
21894;SDS011;11112;51.270;7.224;2024-01-11T13:48:05;46.60;;;22.98;;
21894;SDS011;11112;51.270;7.224;2024-01-11T13:51:05;44.35;;;23.15;;
21894;SDS011;11112;51.270;7.224;2024-01-11T13:53:58;45.88;;;22.90;;
21894;SDS011;11112;51.270;7.224;2024-01-11T13:56:51;42.78;;;22.92;;
21894;SDS011;11112;51.270;7.224;2024-01-11T13:59:47;46.30;;;22.92;;
21894;SDS011;11112;51.270;7.224;2024-01-11T14:05:36;43.47;;;22.45;;
21894;SDS011;11112;51.270;7.224;2024-01-11T14:08:28;43.90;;;22.20;;
21894;SDS011;11112;51.270;7.224;2024-01-11T14:11:20;46.35;;;23.08;;
21894;SDS011;11112;51.270;7.224;2024-01-11T14:14:13;55.22;;;23.75;;
21894;SDS011;11112;51.270;7.224;2024-01-11T14:17:05;41.90;;;22.17;;
21894;SDS011;11112;51.270;7.224;2024-01-11T14:20:07;47.33;;;23.10;;
21894;SDS011;11112;51.270;7.224;2024-01-11T14:23:06;47.63;;;23.75;;
21894;SDS011;11112;51.270;7.224;2024-01-11T14:25:57;49.58;;;24.85;;
21894;SDS011;11112;51.270;7.224;2024-01-11T14:28:58;49.22;;;25.10;;
21894;SDS011;11112;51.270;7.224;2024-01-11T14:31:51;48.38;;;23.77;;
21894;SDS011;11112;51.270;7.224;2024-01-11T14:34:23;48.75;;;24.48;;
21894;SDS011;11112;51.270;7.224;2024-01-11T14:37:27;50.35;;;25.40;;
21894;SDS011;11112;51.270;7.224;2024-01-11T14:40:20;47.92;;;25.02;;
21894;SDS011;11112;51.270;7.224;2024-01-11T14:43:12;54.78;;;27.17;;
21894;SDS011;11112;51.270;7.224;2024-01-11T14:46:03;46.22;;;25.48;;
21894;SDS011;11112;51.270;7.224;2024-01-11T14:49:03;54.28;;;26.42;;
21894;SDS011;11112;51.270;7.224;2024-01-11T14:51:52;55.35;;;26.90;;
21894;SDS011;11112;51.270;7.224;2024-01-11T14:54:45;48.55;;;26.42;;
21894;SDS011;11112;51.270;7.224;2024-01-11T14:57:34;56.05;;;28.13;;
21894;SDS011;11112;51.270;7.224;2024-01-11T15:00:37;57.88;;;28.63;;
21894;SDS011;11112;51.270;7.224;2024-01-11T15:03:28;53.92;;;27.77;;
21894;SDS011;11112;51.270;7.224;2024-01-11T15:06:21;51.35;;;28.50;;
21894;SDS011;11112;51.270;7.224;2024-01-11T15:09:14;56.80;;;27.88;;
21894;SDS011;11112;51.270;7.224;2024-01-11T15:12:12;61.30;;;29.98;;
21894;SDS011;11112;51.270;7.224;2024-01-11T15:15:04;59.92;;;29.92;;
21894;SDS011;11112;51.270;7.224;2024-01-11T15:17:46;66.25;;;30.73;;
21894;SDS011;11112;51.270;7.224;2024-01-11T15:20:38;61.72;;;30.60;;
21894;SDS011;11112;51.270;7.224;2024-01-11T15:23:31;59.72;;;30.20;;
21894;SDS011;11112;51.270;7.224;2024-01-11T15:26:31;59.90;;;30.55;;
21894;SDS011;11112;51.270;7.224;2024-01-11T15:29:37;63.47;;;31.05;;
21894;SDS011;11112;51.270;7.224;2024-01-11T15:32:30;58.03;;;31.35;;
21894;SDS011;11112;51.270;7.224;2024-01-11T15:35:24;66.93;;;33.30;;
21894;SDS011;11112;51.270;7.224;2024-01-11T15:38:16;65.47;;;31.95;;
21894;SDS011;11112;51.270;7.224;2024-01-11T15:41:08;66.85;;;32.17;;
21894;SDS011;11112;51.270;7.224;2024-01-11T15:44:04;57.13;;;30.20;;
21894;SDS011;11112;51.270;7.224;2024-01-11T15:47:01;58.85;;;29.83;;
21894;SDS011;11112;51.270;7.224;2024-01-11T15:49:49;55.88;;;29.05;;
21894;SDS011;11112;51.270;7.224;2024-01-11T15:52:44;59.47;;;30.15;;
21894;SDS011;11112;51.270;7.224;2024-01-11T15:55:33;54.78;;;28.83;;
21894;SDS011;11112;51.270;7.224;2024-01-11T15:58:25;55.00;;;26.98;;
21894;SDS011;11112;51.270;7.224;2024-01-11T16:01:20;50.55;;;26.80;;
21894;SDS011;11112;51.270;7.224;2024-01-11T16:04:18;51.35;;;27.00;;
21894;SDS011;11112;51.270;7.224;2024-01-11T16:07:11;55.83;;;28.08;;
21894;SDS011;11112;51.270;7.224;2024-01-11T16:10:04;53.10;;;26.70;;
21894;SDS011;11112;51.270;7.224;2024-01-11T16:12:57;51.17;;;26.83;;
21894;SDS011;11112;51.270;7.224;2024-01-11T16:15:33;49.22;;;26.10;;
21894;SDS011;11112;51.270;7.224;2024-01-11T16:18:26;51.88;;;26.85;;
21894;SDS011;11112;51.270;7.224;2024-01-11T16:21:05;51.60;;;26.15;;
21894;SDS011;11112;51.270;7.224;2024-01-11T16:23:49;54.85;;;27.33;;
21894;SDS011;11112;51.270;7.224;2024-01-11T16:26:42;48.88;;;26.80;;
21894;SDS011;11112;51.270;7.224;2024-01-11T16:29:35;49.10;;;24.85;;
21894;SDS011;11112;51.270;7.224;2024-01-11T16:32:27;50.33;;;26.25;;
21894;SDS011;11112;51.270;7.224;2024-01-11T16:35:19;55.58;;;27.10;;
21894;SDS011;11112;51.270;7.224;2024-01-11T16:38:17;51.08;;;25.58;;
21894;SDS011;11112;51.270;7.224;2024-01-11T16:41:09;48.55;;;25.52;;
21894;SDS011;11112;51.270;7.224;2024-01-11T16:44:01;46.90;;;24.02;;
21894;SDS011;11112;51.270;7.224;2024-01-11T16:46:54;48.20;;;24.50;;
21894;SDS011;11112;51.270;7.224;2024-01-11T16:49:46;41.75;;;22.40;;
21894;SDS011;11112;51.270;7.224;2024-01-11T16:52:44;36.15;;;20.33;;
21894;SDS011;11112;51.270;7.224;2024-01-11T16:55:41;37.25;;;21.05;;
21894;SDS011;11112;51.270;7.224;2024-01-11T16:58:33;36.65;;;20.42;;
21894;SDS011;11112;51.270;7.224;2024-01-11T17:01:23;34.17;;;19.35;;
21894;SDS011;11112;51.270;7.224;2024-01-11T17:04:14;33.92;;;19.67;;
21894;SDS011;11112;51.270;7.224;2024-01-11T17:07:08;32.42;;;17.80;;
21894;SDS011;11112;51.270;7.224;2024-01-11T17:12:52;29.90;;;16.80;;